createdAt,value
2023-02-15T00:00:25.997Z,21.73
2023-02-15T00:01:25.946Z,21.71
2023-02-15T00:02:25.995Z,21.74
2023-02-15T00:03:25.969Z,21.71
2023-02-15T00:04:25.859Z,21.79
2023-02-15T00:05:26.738Z,21.73
2023-02-15T00:06:25.802Z,21.73
2023-02-15T00:07:25.764Z,21.73
2023-02-15T00:08:25.736Z,21.68
2023-02-15T00:09:25.719Z,21.75
2023-02-15T00:10:25.697Z,21.71
2023-02-15T00:11:25.656Z,21.75
2023-02-15T00:12:25.627Z,21.77
2023-02-15T00:13:25.601Z,21.77
2023-02-15T00:14:25.612Z,21.78
2023-02-15T00:15:25.556Z,21.75
2023-02-15T00:16:25.496Z,21.73
2023-02-15T00:17:25.462Z,21.71
2023-02-15T00:18:25.436Z,21.73
2023-02-15T00:19:25.404Z,21.77
2023-02-15T00:20:25.367Z,21.68
2023-02-15T00:21:25.340Z,21.73
2023-02-15T00:22:25.295Z,21.68
2023-02-15T00:23:25.309Z,21.75
2023-02-15T00:24:25.268Z,21.73
2023-02-15T00:25:25.200Z,21.77
2023-02-15T00:26:25.169Z,21.75
2023-02-15T00:27:25.140Z,21.72
2023-02-15T00:28:25.132Z,21.75
2023-02-15T00:29:25.097Z,21.74
2023-02-15T00:30:25.067Z,21.77
2023-02-15T00:31:25.129Z,21.74
2023-02-15T00:32:24.972Z,21.71
2023-02-15T00:33:24.945Z,21.68
2023-02-15T00:34:24.913Z,21.72
2023-02-15T00:35:24.888Z,21.75
2023-02-15T00:36:24.841Z,21.75
2023-02-15T00:37:24.810Z,21.73
2023-02-15T00:38:24.791Z,21.71
2023-02-15T00:39:24.775Z,21.72
2023-02-15T00:40:24.718Z,21.71
2023-02-15T00:41:24.685Z,21.72
2023-02-15T00:42:24.654Z,21.77
2023-02-15T00:43:24.622Z,21.68
2023-02-15T00:44:24.581Z,21.75
2023-02-15T00:45:24.548Z,21.71
2023-02-15T00:46:24.534Z,21.75
2023-02-15T00:47:24.486Z,21.75
2023-02-15T00:48:24.461Z,21.77
2023-02-15T00:49:24.429Z,21.69
2023-02-15T00:50:24.430Z,21.74
2023-02-15T00:51:24.404Z,21.72
2023-02-15T00:52:24.356Z,21.75
2023-02-15T00:53:25.246Z,21.74
2023-02-15T00:54:24.293Z,21.77
2023-02-15T00:55:24.296Z,21.70
2023-02-15T00:56:24.270Z,21.72
2023-02-15T00:57:24.237Z,21.78
2023-02-15T00:58:24.211Z,21.72
2023-02-15T00:59:24.203Z,21.77
2023-02-15T01:00:24.208Z,21.80
2023-02-15T01:01:24.186Z,21.75
2023-02-15T01:02:24.124Z,21.77
2023-02-15T01:03:24.112Z,21.64
2023-02-15T01:04:24.075Z,21.71
2023-02-15T01:05:24.083Z,21.78
2023-02-15T01:06:24.003Z,21.75
2023-02-15T01:07:23.975Z,21.75
2023-02-15T01:08:23.942Z,21.67
2023-02-15T01:09:23.946Z,21.74
2023-02-15T01:10:23.907Z,21.72
2023-02-15T01:11:23.883Z,21.74
2023-02-15T01:12:23.843Z,21.74
2023-02-15T01:13:23.819Z,21.77
2023-02-15T01:14:23.833Z,21.71
2023-02-15T01:15:23.796Z,21.74
2023-02-15T01:16:23.819Z,21.75
2023-02-15T01:17:23.693Z,21.75
2023-02-15T01:18:23.662Z,21.74
2023-02-15T01:19:23.635Z,21.67
2023-02-15T01:20:23.623Z,21.77
2023-02-15T01:21:23.589Z,21.66
2023-02-15T01:22:23.555Z,21.71
2023-02-15T01:23:23.529Z,21.72
2023-02-15T01:24:23.509Z,21.75
2023-02-15T01:25:23.481Z,21.74
2023-02-15T01:26:23.457Z,21.70
2023-02-15T01:27:23.412Z,21.72
2023-02-15T01:28:23.416Z,21.74
2023-02-15T01:29:23.374Z,21.72
2023-02-15T01:30:23.365Z,21.75
2023-02-15T01:31:23.422Z,21.65
2023-02-15T01:32:23.274Z,21.74
2023-02-15T01:33:23.254Z,21.70
2023-02-15T01:34:23.210Z,21.78
2023-02-15T01:35:23.189Z,21.77
2023-02-15T01:36:23.174Z,21.70
2023-02-15T01:37:23.135Z,21.77
2023-02-15T01:38:23.117Z,21.80
2023-02-15T01:39:23.087Z,21.72
2023-02-15T01:40:23.061Z,21.74
2023-02-15T01:41:23.080Z,21.70
2023-02-15T01:42:22.993Z,21.73
2023-02-15T01:43:22.946Z,21.75
2023-02-15T01:44:22.899Z,21.78
2023-02-15T01:45:22.862Z,21.75
2023-02-15T01:46:22.913Z,21.78
2023-02-15T01:47:22.808Z,21.74
2023-02-15T01:48:22.768Z,21.70
2023-02-15T01:49:22.721Z,21.70
2023-02-15T01:50:22.681Z,21.72
2023-02-15T01:51:22.684Z,21.75
2023-02-15T01:52:22.626Z,21.78
2023-02-15T01:53:22.596Z,21.73
2023-02-15T01:54:22.582Z,21.73
2023-02-15T01:55:22.536Z,21.67
2023-02-15T01:56:22.510Z,21.77
2023-02-15T01:57:22.475Z,21.70
2023-02-15T01:58:25.287Z,21.74
2023-02-15T01:59:22.392Z,21.77
2023-02-15T02:00:22.366Z,21.78
2023-02-15T02:01:22.398Z,21.70
2023-02-15T02:02:22.369Z,21.75
2023-02-15T02:03:22.256Z,21.72
2023-02-15T02:04:22.227Z,21.75
2023-02-15T02:05:22.213Z,21.76
2023-02-15T02:06:22.175Z,21.70
2023-02-15T02:07:22.114Z,21.70
2023-02-15T02:08:22.112Z,21.73
2023-02-15T02:09:22.054Z,21.65
2023-02-15T02:10:22.014Z,21.67
2023-02-15T02:11:21.991Z,21.70
2023-02-15T02:12:21.950Z,21.65
2023-02-15T02:13:21.906Z,21.72
2023-02-15T02:14:21.869Z,21.72
2023-02-15T02:15:21.824Z,21.75
2023-02-15T02:16:21.848Z,21.70
2023-02-15T02:17:21.770Z,21.73
2023-02-15T02:18:21.711Z,21.78
2023-02-15T02:19:21.688Z,21.76
2023-02-15T02:20:21.653Z,21.69
2023-02-15T02:21:21.614Z,21.73
2023-02-15T02:22:21.618Z,21.78
2023-02-15T02:23:21.556Z,21.76
2023-02-15T02:24:21.510Z,21.80
2023-02-15T02:25:21.480Z,21.70
2023-02-15T02:26:22.296Z,21.75
2023-02-15T02:27:21.422Z,21.76
2023-02-15T02:28:21.363Z,21.73
2023-02-15T02:29:21.337Z,21.75
2023-02-15T02:30:21.352Z,21.76
2023-02-15T02:31:21.352Z,21.70
2023-02-15T02:32:21.262Z,21.70
2023-02-15T02:33:21.224Z,21.75
2023-02-15T02:34:21.197Z,21.73
2023-02-15T02:35:21.166Z,21.72
2023-02-15T02:36:21.126Z,21.70
2023-02-15T02:37:21.098Z,21.78
2023-02-15T02:38:21.053Z,21.72
2023-02-15T02:39:21.050Z,21.72
2023-02-15T02:40:20.998Z,21.70
2023-02-15T02:41:20.955Z,21.70
2023-02-15T02:42:20.907Z,21.80
2023-02-15T02:43:20.909Z,21.70
2023-02-15T02:44:20.870Z,21.75
2023-02-15T02:45:20.828Z,21.69
2023-02-15T02:46:20.810Z,21.68
2023-02-15T02:47:20.775Z,21.75
2023-02-15T02:48:20.708Z,21.68
2023-02-15T02:49:20.692Z,21.62
2023-02-15T02:50:20.651Z,21.67
2023-02-15T02:51:20.610Z,21.72
2023-02-15T02:52:20.629Z,21.64
2023-02-15T02:53:20.537Z,21.70
2023-02-15T02:54:20.507Z,21.62
2023-02-15T02:55:20.476Z,21.64
2023-02-15T02:56:20.440Z,21.59
2023-02-15T02:57:20.488Z,21.56
2023-02-15T02:58:20.392Z,21.54
2023-02-15T02:59:20.353Z,21.53
2023-02-15T03:00:20.311Z,21.54
2023-02-15T03:01:20.315Z,21.56
2023-02-15T03:02:20.280Z,21.45
2023-02-15T03:03:20.230Z,21.45
2023-02-15T03:04:20.195Z,21.43
2023-02-15T03:05:20.182Z,21.45
2023-02-15T03:06:20.141Z,21.43
2023-02-15T03:07:20.090Z,21.40
2023-02-15T03:08:20.059Z,21.35
2023-02-15T03:09:20.020Z,21.34
2023-02-15T03:10:19.995Z,21.32
2023-02-15T03:11:19.967Z,21.30
2023-02-15T03:12:19.948Z,21.26
2023-02-15T03:13:19.897Z,21.24
2023-02-15T03:14:19.859Z,21.26
2023-02-15T03:15:19.824Z,21.22
2023-02-15T03:16:19.809Z,21.27
2023-02-15T03:17:19.763Z,21.17
2023-02-15T03:18:19.741Z,21.26
2023-02-15T03:19:19.694Z,21.21
2023-02-15T03:20:19.672Z,21.13
2023-02-15T03:21:19.635Z,21.11
2023-02-15T03:22:19.629Z,21.10
2023-02-15T03:23:19.548Z,21.03
2023-02-15T03:24:19.505Z,21.05
2023-02-15T03:25:19.480Z,21.03
2023-02-15T03:26:19.446Z,20.97
2023-02-15T03:27:19.451Z,21.00
2023-02-15T03:28:19.400Z,20.98
2023-02-15T03:29:19.339Z,20.95
2023-02-15T03:30:19.506Z,20.90
2023-02-15T03:31:19.393Z,20.89
2023-02-15T03:32:19.311Z,20.90
2023-02-15T03:33:19.199Z,20.84
2023-02-15T03:34:19.168Z,20.84
2023-02-15T03:35:19.112Z,20.81
2023-02-15T03:36:19.104Z,20.83
2023-02-15T03:37:19.073Z,20.81
2023-02-15T03:38:19.023Z,20.83
2023-02-15T03:39:18.978Z,20.79
2023-02-15T03:40:18.928Z,20.75
2023-02-15T03:41:18.948Z,20.75
2023-02-15T03:42:18.869Z,20.68
2023-02-15T03:43:18.860Z,20.73
2023-02-15T03:44:18.804Z,20.68
2023-02-15T03:45:18.768Z,20.73
2023-02-15T03:46:18.778Z,20.67
2023-02-15T03:47:18.698Z,20.67
2023-02-15T03:48:18.672Z,20.65
2023-02-15T03:49:18.678Z,20.64
2023-02-15T03:50:18.619Z,20.59
2023-02-15T03:51:18.559Z,20.60
2023-02-15T03:52:18.545Z,20.60
2023-02-15T03:53:19.796Z,20.59
2023-02-15T03:54:18.516Z,20.57
2023-02-15T03:55:18.415Z,20.56
2023-02-15T03:56:18.390Z,20.57
2023-02-15T03:57:18.371Z,20.52
2023-02-15T03:58:18.331Z,20.49
2023-02-15T03:59:18.288Z,20.48
2023-02-15T04:00:18.241Z,20.51
2023-02-15T04:01:18.327Z,20.54
2023-02-15T04:02:18.178Z,20.49
2023-02-15T04:03:18.261Z,20.44
2023-02-15T04:04:18.108Z,20.44
2023-02-15T04:05:18.064Z,20.43
2023-02-15T04:06:18.033Z,20.39
2023-02-15T04:07:17.978Z,20.38
2023-02-15T04:08:17.958Z,20.41
2023-02-15T04:09:17.949Z,20.37
2023-02-15T04:10:17.898Z,20.43
2023-02-15T04:11:17.861Z,20.38
2023-02-15T04:12:17.826Z,20.36
2023-02-15T04:13:19.340Z,20.32
2023-02-15T04:14:17.771Z,20.27
2023-02-15T04:15:17.727Z,20.25
2023-02-15T04:16:17.694Z,20.27
2023-02-15T04:17:17.660Z,20.22
2023-02-15T04:18:17.636Z,20.23
2023-02-15T04:19:17.705Z,20.20
2023-02-15T04:20:17.587Z,20.14
2023-02-15T04:21:17.555Z,20.10
2023-02-15T04:22:17.586Z,20.16
2023-02-15T04:23:17.619Z,20.16
2023-02-15T04:24:17.639Z,20.22
2023-02-15T04:25:17.654Z,20.18
2023-02-15T04:26:17.682Z,20.19
2023-02-15T04:27:17.912Z,20.16
2023-02-15T04:28:17.733Z,20.16
2023-02-15T04:29:17.771Z,20.14
2023-02-15T04:30:17.850Z,20.16
2023-02-15T04:31:17.898Z,20.14
2023-02-15T04:32:17.853Z,20.14
2023-02-15T04:33:17.885Z,20.09
2023-02-15T04:34:17.928Z,20.06
2023-02-15T04:35:17.913Z,20.11
2023-02-15T04:36:17.951Z,20.09
2023-02-15T04:37:17.999Z,20.10
2023-02-15T04:38:18.001Z,20.03
2023-02-15T04:39:18.043Z,19.98
2023-02-15T04:40:19.655Z,20.08
2023-02-15T04:41:18.037Z,20.03
2023-02-15T04:42:17.987Z,20.01
2023-02-15T04:43:17.950Z,20.03
2023-02-15T04:44:17.931Z,19.92
2023-02-15T04:45:17.881Z,20.00
2023-02-15T04:46:17.919Z,19.95
2023-02-15T04:47:17.820Z,19.98
2023-02-15T04:48:17.817Z,19.98
2023-02-15T04:49:17.866Z,19.98
2023-02-15T04:50:17.962Z,19.93
2023-02-15T04:51:17.912Z,19.98
2023-02-15T04:52:17.942Z,19.95
2023-02-15T04:53:17.985Z,19.97
2023-02-15T04:54:18.012Z,19.92
2023-02-15T04:55:18.022Z,19.93
2023-02-15T04:56:18.049Z,19.92
2023-02-15T04:57:18.080Z,19.96
2023-02-15T04:58:18.123Z,19.85
2023-02-15T04:59:18.159Z,19.92
2023-02-15T05:00:18.371Z,19.87
2023-02-15T05:01:18.239Z,19.89
2023-02-15T05:02:18.246Z,19.85
2023-02-15T05:03:19.724Z,19.81
2023-02-15T05:04:18.300Z,19.84
2023-02-15T05:05:18.203Z,19.84
2023-02-15T05:06:18.175Z,19.85
2023-02-15T05:07:18.137Z,19.82
2023-02-15T05:08:18.117Z,19.84
2023-02-15T05:09:18.148Z,19.79
2023-02-15T05:10:18.196Z,19.76
2023-02-15T05:11:18.168Z,19.79
2023-02-15T05:12:18.212Z,19.81
2023-02-15T05:13:18.227Z,19.85
2023-02-15T05:14:18.258Z,19.79
2023-02-15T05:15:18.317Z,19.81
2023-02-15T05:16:18.356Z,19.78
2023-02-15T05:17:18.358Z,19.79
2023-02-15T05:18:18.396Z,19.74
2023-02-15T05:19:18.406Z,19.76
2023-02-15T05:20:18.465Z,19.69
2023-02-15T05:21:18.468Z,19.74
2023-02-15T08:43:24.433Z,18.07
2023-02-15T08:45:21.438Z,18.07
2023-02-15T09:53:17.105Z,17.98
2023-02-15T09:54:17.003Z,18.00
2023-02-15T09:55:17.025Z,18.04
2023-02-15T09:56:16.950Z,17.96
2023-02-15T09:57:16.886Z,18.08
2023-02-15T09:58:16.877Z,18.05
2023-02-15T09:59:16.871Z,18.01
2023-02-15T10:00:16.875Z,18.05
2023-02-15T10:01:16.970Z,18.06
2023-02-15T10:02:16.920Z,18.05
2023-02-15T10:03:16.957Z,18.06
2023-02-15T10:04:17.026Z,18.06
2023-02-15T10:05:17.004Z,18.10
2023-02-15T10:06:17.029Z,18.05
2023-02-15T10:07:17.025Z,18.08
2023-02-15T10:08:17.111Z,18.10
2023-02-15T10:09:17.074Z,18.06
2023-02-15T10:10:17.104Z,18.16
2023-02-15T10:11:17.210Z,18.13
2023-02-15T10:12:17.161Z,18.13
2023-02-15T10:13:17.120Z,18.13
2023-02-15T10:14:17.073Z,18.11
2023-02-15T10:15:17.037Z,18.12
2023-02-15T10:16:17.023Z,18.19
2023-02-15T10:17:16.947Z,18.14
2023-02-15T10:18:16.896Z,18.18
2023-02-15T10:19:16.876Z,18.19
2023-02-15T10:20:16.992Z,18.16
2023-02-15T10:21:16.775Z,18.21
2023-02-15T10:22:16.713Z,18.21
2023-02-15T10:23:16.675Z,18.21
2023-02-15T10:24:17.509Z,18.16
2023-02-15T10:25:16.642Z,18.18
2023-02-15T10:26:16.598Z,18.16
2023-02-15T10:27:16.544Z,18.23
2023-02-15T10:28:16.475Z,18.26
2023-02-15T10:29:16.451Z,18.20
2023-02-15T10:30:16.450Z,18.27
2023-02-15T10:31:16.509Z,18.20
2023-02-15T10:32:16.578Z,18.26
2023-02-15T10:33:16.261Z,18.26
2023-02-15T10:34:16.239Z,18.26
2023-02-15T10:35:16.188Z,18.29
2023-02-15T10:36:16.151Z,18.29
2023-02-15T10:37:16.091Z,18.26
2023-02-15T10:38:16.050Z,18.28
2023-02-15T10:39:16.009Z,18.23
2023-02-15T10:40:15.986Z,18.23
2023-02-15T10:41:15.969Z,18.26
2023-02-15T10:42:15.883Z,18.29
2023-02-15T10:43:15.820Z,18.28
2023-02-15T10:44:15.804Z,18.33
2023-02-15T10:45:15.730Z,18.37
2023-02-15T10:46:15.738Z,18.29
2023-02-15T10:47:15.661Z,18.36
2023-02-15T10:48:15.615Z,18.33
2023-02-15T10:49:15.554Z,18.36
2023-02-15T10:50:15.502Z,18.33
2023-02-15T10:51:15.456Z,18.26
2023-02-15T10:52:15.397Z,18.31
2023-02-15T10:53:15.495Z,18.34
2023-02-15T10:54:15.342Z,18.33
2023-02-15T10:55:15.300Z,18.34
2023-02-15T10:56:15.494Z,18.36
2023-02-15T10:57:15.159Z,18.33
2023-02-15T10:58:15.119Z,18.36
2023-02-15T10:59:15.115Z,18.42
2023-02-15T11:00:15.038Z,18.38
2023-02-15T11:01:15.004Z,18.39
2023-02-15T11:02:15.498Z,18.34
2023-02-15T11:03:14.895Z,18.28
2023-02-15T11:04:16.589Z,18.39
2023-02-15T11:05:14.923Z,18.38
2023-02-15T11:06:14.846Z,18.36
2023-02-15T11:07:14.809Z,18.42
2023-02-15T11:08:14.760Z,18.38
2023-02-15T11:09:14.720Z,18.34
2023-02-15T11:10:16.754Z,18.38
2023-02-15T11:11:14.641Z,18.41
2023-02-15T11:12:14.572Z,18.39
2023-02-15T11:13:14.546Z,18.43
2023-02-15T11:14:14.503Z,18.39
2023-02-15T11:15:14.449Z,18.43
2023-02-15T11:16:16.009Z,18.38
2023-02-15T11:17:14.470Z,18.39
2023-02-15T11:18:14.414Z,18.39
2023-02-15T11:19:14.407Z,18.39
2023-02-15T11:20:14.317Z,18.39
2023-02-15T11:21:14.285Z,18.40
2023-02-15T11:22:14.970Z,18.41
2023-02-15T11:23:14.196Z,18.41
2023-02-15T11:24:14.200Z,18.41
2023-02-15T11:25:14.242Z,18.41
2023-02-15T11:26:14.314Z,18.41
2023-02-15T11:27:14.323Z,18.43
2023-02-15T11:28:14.265Z,18.41
2023-02-15T11:29:14.278Z,18.44
2023-02-15T11:30:14.434Z,18.46
2023-02-15T11:31:14.466Z,18.37
2023-02-15T11:32:14.480Z,18.42
2023-02-15T11:33:14.358Z,18.44
2023-02-15T11:34:14.369Z,18.46
2023-02-15T11:35:14.393Z,18.38
2023-02-15T11:36:14.430Z,18.43
2023-02-15T11:37:14.425Z,18.42
2023-02-15T11:38:14.434Z,18.37
2023-02-15T11:39:14.463Z,18.40
2023-02-15T11:40:14.475Z,18.38
2023-02-15T11:41:14.521Z,18.38
2023-02-15T11:42:14.522Z,18.43
2023-02-15T11:43:14.540Z,18.43
2023-02-15T11:44:14.538Z,18.40
2023-02-15T11:45:14.573Z,18.40
2023-02-15T11:46:14.602Z,18.43
2023-02-15T11:47:14.580Z,18.42
2023-02-15T11:48:15.535Z,18.45
2023-02-15T11:49:14.600Z,18.48
2023-02-15T11:50:15.553Z,18.47
2023-02-15T11:51:14.480Z,18.47
2023-02-15T11:52:14.499Z,18.40
2023-02-15T11:53:14.412Z,18.43
2023-02-15T11:54:14.388Z,18.47
2023-02-15T11:55:14.349Z,18.45
2023-02-15T11:56:15.045Z,18.47
2023-02-15T11:57:14.247Z,18.48
2023-02-15T11:58:14.207Z,18.42
2023-02-15T11:59:14.168Z,18.50
2023-02-15T12:00:14.092Z,18.44
2023-02-15T12:01:14.064Z,18.42
2023-02-15T12:02:14.032Z,18.44
2023-02-15T12:03:14.007Z,18.49
2023-02-15T12:04:14.063Z,18.36
2023-02-15T12:05:14.001Z,18.41
2023-02-15T12:06:13.993Z,18.45
2023-02-15T12:07:14.068Z,18.41
2023-02-15T12:08:14.990Z,18.34
2023-02-15T12:09:13.972Z,18.37
2023-02-15T12:10:14.525Z,18.39
2023-02-15T12:11:13.932Z,18.39
2023-02-15T12:12:14.512Z,18.42
2023-02-15T12:13:13.831Z,18.39
2023-02-15T12:14:13.768Z,18.39
2023-02-15T12:15:13.748Z,18.34
2023-02-15T12:16:13.774Z,18.36
2023-02-15T12:17:13.644Z,18.38
2023-02-15T12:18:14.028Z,18.37
2023-02-15T12:19:13.699Z,18.31
2023-02-15T12:20:13.539Z,18.35
2023-02-15T12:21:14.016Z,18.32
2023-02-15T12:22:14.170Z,18.26
2023-02-15T12:23:13.392Z,18.26
2023-02-15T12:24:13.359Z,18.27
2023-02-15T12:25:13.310Z,18.33
2023-02-15T12:26:13.264Z,18.24
2023-02-15T12:27:13.296Z,18.26
2023-02-15T12:28:13.214Z,18.27
2023-02-15T12:29:13.118Z,18.28
2023-02-15T12:30:14.066Z,18.27
2023-02-15T12:31:13.123Z,18.19
2023-02-15T12:32:13.039Z,18.17
2023-02-15T12:33:12.957Z,18.21
2023-02-15T12:34:12.913Z,18.19
2023-02-15T12:35:12.850Z,18.16
2023-02-15T12:36:12.819Z,18.24
2023-02-15T12:37:12.780Z,18.19
2023-02-15T12:38:12.745Z,18.21
2023-02-15T12:39:12.762Z,18.17
2023-02-15T12:40:12.739Z,18.26
2023-02-15T12:41:12.671Z,18.21
2023-02-15T12:42:12.598Z,18.21
2023-02-15T12:43:12.546Z,18.21
2023-02-15T12:44:14.734Z,18.16
2023-02-15T12:45:12.500Z,18.16
2023-02-15T12:46:12.433Z,18.08
2023-02-15T12:47:12.372Z,18.15
2023-02-15T12:48:12.326Z,18.08
2023-02-15T12:49:12.298Z,18.10
2023-02-15T12:50:12.619Z,18.12
2023-02-15T12:51:12.372Z,18.08
2023-02-15T12:52:12.157Z,18.05
2023-02-15T12:53:12.101Z,18.04
2023-02-15T12:54:12.061Z,18.06
2023-02-15T12:55:12.040Z,18.06
2023-02-15T12:56:11.980Z,18.10
2023-02-15T12:57:11.931Z,18.05
2023-02-15T12:58:11.929Z,18.02
2023-02-15T12:59:11.861Z,18.10
2023-02-15T13:00:11.844Z,18.06
2023-02-15T13:01:11.882Z,18.04
2023-02-15T13:02:11.862Z,18.06
2023-02-15T13:03:12.058Z,18.03
2023-02-15T13:04:11.837Z,18.07
2023-02-15T13:05:11.891Z,17.99
2023-02-15T13:06:11.879Z,18.03
2023-02-15T13:07:11.903Z,18.01
2023-02-15T13:08:11.900Z,18.03
2023-02-15T13:09:11.950Z,17.99
2023-02-15T13:10:11.961Z,17.95
2023-02-15T13:11:11.959Z,17.97
2023-02-15T13:12:12.019Z,17.95
2023-02-15T13:13:12.038Z,18.01
2023-02-15T13:14:12.517Z,18.00
2023-02-15T13:15:11.955Z,17.94
2023-02-15T13:16:11.948Z,17.97
2023-02-15T13:17:11.857Z,17.94
2023-02-15T13:18:11.814Z,17.94
2023-02-15T13:19:11.826Z,17.94
2023-02-15T13:20:11.772Z,17.95
2023-02-15T13:21:11.728Z,17.94
2023-02-15T13:22:11.679Z,17.94
2023-02-15T13:23:11.701Z,17.89
2023-02-15T13:24:11.814Z,17.94
2023-02-15T13:25:11.741Z,17.89
2023-02-15T13:26:11.755Z,17.92
2023-02-15T13:27:15.794Z,17.91
2023-02-15T13:28:11.726Z,17.96
2023-02-15T13:29:11.656Z,17.88
2023-02-15T13:30:11.710Z,17.96
2023-02-15T13:31:11.624Z,17.90
2023-02-15T13:32:11.543Z,17.85
2023-02-15T13:33:11.494Z,17.91
2023-02-15T13:34:11.559Z,17.93
2023-02-15T13:35:11.395Z,17.88
2023-02-15T13:36:11.398Z,17.90
2023-02-15T13:37:11.332Z,17.93
2023-02-15T13:38:11.311Z,17.85
2023-02-15T13:39:11.247Z,17.88
2023-02-15T13:40:11.186Z,17.95
2023-02-15T13:41:11.129Z,17.89
2023-02-15T13:42:11.094Z,17.91
2023-02-15T13:43:11.543Z,17.88
2023-02-15T13:44:11.015Z,17.93
2023-02-15T13:45:10.961Z,17.89
2023-02-15T13:46:10.889Z,17.92
2023-02-15T13:47:10.830Z,17.92
2023-02-15T13:48:10.761Z,17.99
2023-02-15T13:49:10.742Z,17.94
2023-02-15T13:50:10.679Z,17.95
2023-02-15T13:51:10.597Z,17.94
2023-02-15T13:52:10.556Z,17.91
2023-02-15T13:53:11.064Z,17.91
2023-02-15T13:54:10.500Z,17.89
2023-02-15T13:55:10.400Z,17.89
2023-02-15T13:56:10.368Z,17.89
2023-02-15T13:57:10.310Z,17.86
2023-02-15T13:58:10.279Z,17.94
2023-02-15T13:59:10.229Z,17.89
2023-02-15T14:00:10.241Z,17.86
2023-02-15T14:01:10.238Z,17.91
2023-02-15T14:02:10.107Z,17.83
2023-02-15T14:03:10.066Z,17.82
2023-02-15T14:04:10.187Z,17.85
2023-02-15T14:05:09.969Z,17.93
2023-02-15T14:06:09.923Z,17.87
2023-02-15T14:07:09.874Z,17.86
2023-02-15T14:08:09.893Z,17.87
2023-02-15T14:09:09.785Z,17.88
2023-02-15T14:10:09.772Z,17.85
2023-02-15T14:11:09.741Z,17.95
2023-02-15T14:12:09.630Z,17.90
2023-02-15T14:13:10.162Z,17.87
2023-02-15T14:14:09.557Z,17.93
2023-02-15T14:15:09.557Z,17.84
2023-02-15T14:16:09.448Z,17.92
2023-02-15T14:17:09.431Z,17.87
2023-02-15T14:18:15.069Z,17.83
2023-02-15T14:19:09.283Z,17.81
2023-02-15T14:20:09.585Z,17.76
2023-02-15T14:21:09.190Z,17.83
2023-02-15T14:22:09.189Z,17.89
2023-02-15T14:23:09.117Z,17.89
2023-02-15T14:24:09.081Z,17.99
2023-02-15T14:25:09.030Z,17.94
2023-02-15T14:26:09.015Z,18.02
2023-02-15T14:27:08.953Z,17.97
2023-02-15T14:28:08.917Z,17.89
2023-02-15T14:29:08.850Z,17.99
2023-02-15T14:30:08.831Z,17.98
2023-02-15T14:31:08.829Z,17.95
2023-02-15T14:32:08.900Z,17.96
2023-02-15T14:33:08.670Z,17.87
2023-02-15T14:34:08.633Z,17.95
2023-02-15T14:35:08.605Z,17.96
2023-02-15T14:36:08.576Z,18.01
2023-02-15T14:37:08.517Z,18.15
2023-02-15T14:38:08.502Z,18.12
2023-02-15T14:39:08.466Z,18.63
2023-02-15T14:40:08.442Z,19.56
2023-02-15T14:41:08.347Z,20.40
2023-02-15T14:42:08.317Z,20.97
2023-02-15T14:43:08.286Z,21.07
2023-02-15T14:44:08.262Z,21.32
2023-02-15T14:45:08.367Z,21.56
2023-02-15T14:46:08.191Z,21.78
2023-02-15T14:47:08.113Z,21.86
2023-02-15T14:48:08.289Z,22.07
2023-02-15T14:49:08.050Z,22.13
2023-02-15T14:50:07.985Z,22.27
2023-02-15T14:51:07.949Z,22.34
2023-02-15T14:52:07.906Z,22.35
2023-02-15T14:53:07.866Z,22.28
2023-02-15T14:54:07.801Z,22.36
2023-02-15T14:55:07.775Z,22.30
2023-02-15T14:56:07.779Z,22.22
2023-02-15T14:57:07.686Z,22.25
2023-02-15T14:58:07.669Z,22.20
2023-02-15T14:59:07.605Z,22.07
2023-02-15T15:00:08.108Z,22.08
2023-02-15T15:01:07.653Z,21.99
2023-02-15T15:02:07.521Z,21.96
2023-02-15T15:03:07.472Z,21.86
2023-02-15T15:04:07.479Z,21.84
2023-02-15T15:05:07.378Z,21.80
2023-02-15T15:06:07.852Z,21.68
2023-02-15T15:07:07.319Z,21.64
2023-02-15T15:08:07.299Z,21.67
2023-02-15T15:09:07.261Z,21.60
2023-02-15T15:10:07.213Z,21.54
2023-02-15T15:11:08.875Z,21.47
2023-02-15T15:12:07.096Z,21.20
2023-02-15T15:13:07.056Z,21.10
2023-02-15T15:14:07.027Z,21.23
2023-02-15T15:15:07.015Z,21.29
2023-02-15T15:16:06.961Z,21.28
2023-02-15T15:17:06.895Z,21.28
2023-02-15T15:18:06.848Z,21.24
2023-02-15T15:19:06.821Z,21.24
2023-02-15T15:20:06.785Z,21.16
2023-02-15T15:21:06.747Z,21.26
2023-02-15T15:22:06.720Z,21.16
2023-02-15T15:23:06.631Z,21.19
2023-02-15T15:24:06.605Z,21.14
2023-02-15T15:25:06.560Z,21.18
2023-02-15T15:26:06.584Z,21.18
2023-02-15T15:27:06.452Z,21.16
2023-02-15T15:28:06.419Z,21.18
2023-02-15T15:29:06.363Z,21.14
2023-02-15T15:30:06.423Z,21.16
2023-02-15T15:31:06.457Z,21.14
2023-02-15T15:32:06.410Z,21.12
2023-02-15T15:33:06.205Z,21.12
2023-02-15T15:34:06.161Z,21.14
2023-02-15T15:35:06.119Z,21.17
2023-02-15T15:36:06.095Z,21.14
2023-02-15T15:37:06.045Z,21.17
2023-02-15T15:38:06.005Z,21.15
2023-02-15T15:39:05.956Z,21.15
2023-02-15T15:40:06.026Z,21.07
2023-02-15T15:41:05.894Z,21.12
2023-02-15T15:42:05.858Z,21.10
2023-02-15T15:43:05.808Z,21.12
2023-02-15T15:44:05.741Z,21.07
2023-02-15T15:45:05.707Z,21.09
2023-02-15T15:46:05.808Z,21.13
2023-02-15T15:47:05.656Z,21.20
2023-02-15T15:48:07.556Z,21.15
2023-02-15T15:49:05.533Z,21.15
2023-02-15T15:50:05.549Z,21.15
2023-02-15T15:51:05.446Z,21.12
2023-02-15T15:52:05.431Z,21.10
2023-02-15T15:53:05.360Z,21.11
2023-02-15T15:54:05.318Z,21.10
2023-02-15T15:55:05.287Z,21.10
2023-02-15T15:56:05.259Z,21.08
2023-02-15T15:57:05.261Z,21.15
2023-02-15T15:58:05.167Z,21.11
2023-02-15T15:59:05.130Z,21.13
2023-02-15T16:00:05.580Z,21.10
2023-02-15T16:01:05.062Z,21.08
2023-02-15T16:02:05.060Z,21.03
2023-02-15T16:03:05.057Z,21.06
2023-02-15T16:04:04.944Z,21.08
2023-02-15T16:05:04.885Z,21.08
2023-02-15T16:06:05.814Z,21.09
2023-02-15T16:07:04.828Z,21.11
2023-02-15T16:08:04.769Z,21.08
2023-02-15T16:09:04.736Z,21.09
2023-02-15T16:10:04.753Z,21.12
2023-02-15T16:11:04.650Z,21.12
2023-02-15T16:12:04.653Z,21.17
2023-02-15T16:13:05.589Z,21.12
2023-02-15T16:14:04.632Z,21.10
2023-02-15T16:15:04.572Z,21.12
2023-02-15T16:16:05.016Z,21.05
2023-02-15T16:17:04.528Z,21.10
2023-02-15T16:18:04.495Z,21.10
2023-02-15T16:19:04.444Z,21.12
2023-02-15T16:20:04.473Z,21.09
2023-02-15T16:21:04.375Z,21.15
2023-02-15T16:22:04.362Z,21.13
2023-02-15T16:23:04.296Z,21.07
2023-02-15T16:24:04.301Z,21.19
2023-02-15T16:25:04.342Z,21.12
2023-02-15T16:26:04.676Z,21.15
2023-02-15T16:27:04.287Z,21.18
2023-02-15T16:28:04.284Z,21.18
2023-02-15T16:29:04.219Z,21.11
2023-02-15T16:30:04.341Z,21.18
2023-02-15T16:31:04.210Z,21.13
2023-02-15T16:32:04.186Z,21.11
2023-02-15T16:33:04.047Z,21.11
2023-02-15T16:34:04.008Z,21.14
2023-02-15T16:35:04.055Z,21.16
2023-02-15T16:36:04.561Z,21.16
2023-02-15T16:37:04.019Z,21.15
2023-02-15T16:38:03.987Z,21.21
2023-02-15T16:39:03.944Z,21.15
2023-02-15T16:40:03.942Z,21.14
2023-02-15T16:41:04.173Z,21.16
2023-02-15T16:42:03.814Z,21.13
2023-02-15T16:43:03.783Z,21.15
2023-02-15T16:44:03.735Z,21.14
2023-02-15T16:45:04.594Z,21.22
2023-02-15T16:46:03.686Z,21.15
2023-02-15T16:47:03.608Z,21.14
2023-02-15T16:48:03.592Z,21.15
2023-02-15T16:49:03.555Z,21.15
2023-02-15T16:50:03.513Z,21.17
2023-02-15T16:51:03.997Z,21.11
2023-02-15T16:52:03.460Z,21.12
2023-02-15T16:53:03.414Z,21.12
2023-02-15T16:54:03.385Z,21.14
2023-02-15T16:55:03.342Z,21.12
2023-02-15T16:56:03.329Z,21.15
2023-02-15T16:57:03.265Z,21.20
2023-02-15T16:58:03.257Z,21.18
2023-02-15T16:59:03.233Z,21.14
2023-02-15T17:00:03.251Z,21.18
2023-02-15T17:01:03.574Z,21.12
2023-02-15T17:02:03.220Z,21.18
2023-02-15T17:03:03.231Z,21.14
2023-02-15T17:04:03.224Z,21.15
2023-02-15T17:05:03.114Z,21.18
2023-02-15T17:06:03.067Z,21.12
2023-02-15T17:07:03.021Z,21.13
2023-02-15T17:08:02.998Z,21.18
2023-02-15T17:09:03.001Z,21.16
2023-02-15T17:10:03.034Z,21.16
2023-02-15T17:11:03.344Z,21.16
2023-02-15T17:12:03.009Z,21.12
2023-02-15T17:13:02.971Z,21.18
2023-02-15T17:14:02.937Z,21.19
2023-02-15T17:15:02.883Z,21.23
2023-02-15T17:16:03.281Z,21.21
2023-02-15T17:17:02.810Z,21.19
2023-02-15T17:18:02.806Z,21.19
2023-02-15T17:19:02.746Z,21.23
2023-02-15T17:20:02.701Z,21.18
2023-02-15T17:21:02.692Z,21.14